sensor_id;sensor_type;location;lat;lon;timestamp;temperature;humidity
736;DHT22;352;48.626;9.238;2022-10-15T06:26:47;16.50;99.90
736;DHT22;352;48.626;9.238;2022-10-15T06:31:41;16.50;99.90
736;DHT22;352;48.626;9.238;2022-10-15T06:36:36;16.50;99.90
736;DHT22;352;48.626;9.238;2022-10-15T06:39:03;16.50;99.90
736;DHT22;352;48.626;9.238;2022-10-15T06:41:30;16.50;99.90
736;DHT22;352;48.626;9.238;2022-10-15T06:43:58;16.50;99.90
736;DHT22;352;48.626;9.238;2022-10-15T06:46:25;16.60;99.90
736;DHT22;352;48.626;9.238;2022-10-15T06:48:52;16.60;99.90
736;DHT22;352;48.626;9.238;2022-10-15T06:51:20;16.60;99.90
736;DHT22;352;48.626;9.238;2022-10-15T06:53:47;16.60;99.90
736;DHT22;352;48.626;9.238;2022-10-15T06:56:13;16.60;99.90
736;DHT22;352;48.626;9.238;2022-10-15T06:58:40;16.70;99.90
736;DHT22;352;48.626;9.238;2022-10-15T07:01:09;16.70;99.90
736;DHT22;352;48.626;9.238;2022-10-15T07:03:36;16.70;99.90
736;DHT22;352;48.626;9.238;2022-10-15T07:06:04;16.70;99.90
736;DHT22;352;48.626;9.238;2022-10-15T07:08:31;16.70;99.90
736;DHT22;352;48.626;9.238;2022-10-15T07:11:00;16.70;99.90
736;DHT22;352;48.626;9.238;2022-10-15T07:13:28;16.70;99.90
736;DHT22;352;48.626;9.238;2022-10-15T07:15:55;16.90;99.90
736;DHT22;352;48.626;9.238;2022-10-15T07:18:23;16.70;99.90
736;DHT22;352;48.626;9.238;2022-10-15T07:20:50;16.70;99.90
736;DHT22;352;48.626;9.238;2022-10-15T07:23:16;16.70;99.90
736;DHT22;352;48.626;9.238;2022-10-15T07:25:43;16.70;99.90
736;DHT22;352;48.626;9.238;2022-10-15T07:30:37;16.70;99.90
736;DHT22;352;48.626;9.238;2022-10-15T07:33:04;16.70;99.90
736;DHT22;352;48.626;9.238;2022-10-15T07:35:32;16.70;99.90
736;DHT22;352;48.626;9.238;2022-10-15T07:37:59;16.80;99.90
736;DHT22;352;48.626;9.238;2022-10-15T07:40:27;16.80;99.90
736;DHT22;352;48.626;9.238;2022-10-15T07:42:54;16.90;99.90
736;DHT22;352;48.626;9.238;2022-10-15T07:45:21;16.90;99.90
736;DHT22;352;48.626;9.238;2022-10-15T07:47:49;17.00;99.90
736;DHT22;352;48.626;9.238;2022-10-15T07:50:15;17.00;99.90
736;DHT22;352;48.626;9.238;2022-10-15T07:52:44;17.00;99.90
736;DHT22;352;48.626;9.238;2022-10-15T07:55:11;17.10;99.90
736;DHT22;352;48.626;9.238;2022-10-15T07:57:38;17.20;99.90
736;DHT22;352;48.626;9.238;2022-10-15T08:00:06;17.20;99.90
736;DHT22;352;48.626;9.238;2022-10-15T08:02:33;17.20;99.90
736;DHT22;352;48.626;9.238;2022-10-15T08:04:59;17.20;99.90
736;DHT22;352;48.626;9.238;2022-10-15T08:07:26;17.30;99.90
736;DHT22;352;48.626;9.238;2022-10-15T08:09:54;17.30;99.90
736;DHT22;352;48.626;9.238;2022-10-15T08:12:21;17.50;99.90
736;DHT22;352;48.626;9.238;2022-10-15T08:14:48;17.30;99.90
736;DHT22;352;48.626;9.238;2022-10-15T08:17:15;17.40;99.90
736;DHT22;352;48.626;9.238;2022-10-15T08:19:41;17.50;99.90
736;DHT22;352;48.626;9.238;2022-10-15T08:22:08;17.50;99.90
736;DHT22;352;48.626;9.238;2022-10-15T08:24:36;17.60;99.90
736;DHT22;352;48.626;9.238;2022-10-15T08:27:06;17.60;99.90
736;DHT22;352;48.626;9.238;2022-10-15T08:29:33;17.60;99.90
736;DHT22;352;48.626;9.238;2022-10-15T08:32:00;17.70;99.90
736;DHT22;352;48.626;9.238;2022-10-15T08:36:54;17.80;99.90
736;DHT22;352;48.626;9.238;2022-10-15T08:39:21;17.80;99.90
736;DHT22;352;48.626;9.238;2022-10-15T08:41:49;17.80;99.90
736;DHT22;352;48.626;9.238;2022-10-15T08:44:24;17.90;99.90
736;DHT22;352;48.626;9.238;2022-10-15T08:46:54;17.90;99.90
736;DHT22;352;48.626;9.238;2022-10-15T08:49:32;17.70;99.90
736;DHT22;352;48.626;9.238;2022-10-15T08:52:07;18.20;99.90
736;DHT22;352;48.626;9.238;2022-10-15T08:57:15;18.40;99.90
736;DHT22;352;48.626;9.238;2022-10-15T08:59:48;18.50;99.90
736;DHT22;352;48.626;9.238;2022-10-15T09:02:21;18.40;99.90
736;DHT22;352;48.626;9.238;2022-10-15T09:04:54;18.60;99.90
736;DHT22;352;48.626;9.238;2022-10-15T09:07:29;18.80;99.90
736;DHT22;352;48.626;9.238;2022-10-15T09:10:04;19.00;99.90
736;DHT22;352;48.626;9.238;2022-10-15T09:12:41;19.10;99.90
736;DHT22;352;48.626;9.238;2022-10-15T09:15:17;19.10;99.90
736;DHT22;352;48.626;9.238;2022-10-15T09:17:47;19.10;99.90
736;DHT22;352;48.626;9.238;2022-10-15T09:20:16;19.00;99.90
736;DHT22;352;48.626;9.238;2022-10-15T09:22:45;18.90;99.90
736;DHT22;352;48.626;9.238;2022-10-15T09:25:20;19.00;99.90
736;DHT22;352;48.626;9.238;2022-10-15T09:27:48;18.90;99.90
736;DHT22;352;48.626;9.238;2022-10-15T09:30:33;19.10;99.90
736;DHT22;352;48.626;9.238;2022-10-15T09:33:08;19.10;99.90
736;DHT22;352;48.626;9.238;2022-10-15T09:35:48;19.70;99.90
736;DHT22;352;48.626;9.238;2022-10-15T09:38:26;19.70;99.90
736;DHT22;352;48.626;9.238;2022-10-15T09:41:04;20.10;99.90
736;DHT22;352;48.626;9.238;2022-10-15T09:43:45;20.40;99.90
736;DHT22;352;48.626;9.238;2022-10-15T09:46:13;20.90;99.90
736;DHT22;352;48.626;9.238;2022-10-15T09:48:45;21.40;99.90
736;DHT22;352;48.626;9.238;2022-10-15T09:51:21;22.00;99.90
736;DHT22;352;48.626;9.238;2022-10-15T09:53:55;23.10;99.90
736;DHT22;352;48.626;9.238;2022-10-15T09:56:27;24.00;99.90
736;DHT22;352;48.626;9.238;2022-10-15T09:58:58;24.10;99.90
736;DHT22;352;48.626;9.238;2022-10-15T10:01:27;25.00;99.90
736;DHT22;352;48.626;9.238;2022-10-15T10:04:09;26.00;99.90
736;DHT22;352;48.626;9.238;2022-10-15T10:06:42;26.10;99.90
736;DHT22;352;48.626;9.238;2022-10-15T10:09:16;26.20;99.90
736;DHT22;352;48.626;9.238;2022-10-15T10:11:49;26.50;99.90
736;DHT22;352;48.626;9.238;2022-10-15T10:14:24;27.90;99.90
736;DHT22;352;48.626;9.238;2022-10-15T10:17:09;27.80;99.90
736;DHT22;352;48.626;9.238;2022-10-15T10:22:12;28.80;99.90
736;DHT22;352;48.626;9.238;2022-10-15T10:24:39;28.30;99.90
736;DHT22;352;48.626;9.238;2022-10-15T10:27:17;27.70;99.90
736;DHT22;352;48.626;9.238;2022-10-15T10:29:48;27.30;95.30
736;DHT22;352;48.626;9.238;2022-10-15T10:32:20;26.60;96.10
736;DHT22;352;48.626;9.238;2022-10-15T10:34:48;25.90;96.60
736;DHT22;352;48.626;9.238;2022-10-15T10:37:15;25.00;97.30
736;DHT22;352;48.626;9.238;2022-10-15T10:39:42;24.70;98.90
736;DHT22;352;48.626;9.238;2022-10-15T10:42:24;24.20;98.90
736;DHT22;352;48.626;9.238;2022-10-15T10:44:52;23.80;99.90
736;DHT22;352;48.626;9.238;2022-10-15T10:47:21;23.80;99.90
736;DHT22;352;48.626;9.238;2022-10-15T10:49:49;23.70;99.90
736;DHT22;352;48.626;9.238;2022-10-15T10:52:25;23.50;99.90
736;DHT22;352;48.626;9.238;2022-10-15T10:54:58;23.50;99.90
736;DHT22;352;48.626;9.238;2022-10-15T10:57:31;23.20;99.90
736;DHT22;352;48.626;9.238;2022-10-15T11:00:03;23.00;99.90
736;DHT22;352;48.626;9.238;2022-10-15T11:02:33;22.80;99.90
736;DHT22;352;48.626;9.238;2022-10-15T11:05:04;22.50;99.90
736;DHT22;352;48.626;9.238;2022-10-15T11:07:37;22.30;99.90
736;DHT22;352;48.626;9.238;2022-10-15T11:10:11;22.00;99.90
736;DHT22;352;48.626;9.238;2022-10-15T11:12:50;21.90;99.90
736;DHT22;352;48.626;9.238;2022-10-15T11:15:33;21.70;99.90
736;DHT22;352;48.626;9.238;2022-10-15T11:18:23;21.60;99.90
736;DHT22;352;48.626;9.238;2022-10-15T11:20:57;21.50;99.90
736;DHT22;352;48.626;9.238;2022-10-15T11:23:41;21.40;99.90
736;DHT22;352;48.626;9.238;2022-10-15T11:29:13;21.30;99.90
736;DHT22;352;48.626;9.238;2022-10-15T11:31:48;21.30;99.90
736;DHT22;352;48.626;9.238;2022-10-15T11:34:28;21.40;99.90
736;DHT22;352;48.626;9.238;2022-10-15T11:37:07;21.30;99.90
736;DHT22;352;48.626;9.238;2022-10-15T11:39:50;21.40;99.90
736;DHT22;352;48.626;9.238;2022-10-15T11:42:24;21.40;99.90
736;DHT22;352;48.626;9.238;2022-10-15T11:45:07;21.40;99.90
736;DHT22;352;48.626;9.238;2022-10-15T11:47:48;21.60;99.90
736;DHT22;352;48.626;9.238;2022-10-15T11:50:26;21.70;99.90
736;DHT22;352;48.626;9.238;2022-10-15T11:53:07;21.90;99.90
736;DHT22;352;48.626;9.238;2022-10-15T11:55:41;21.80;99.90
736;DHT22;352;48.626;9.238;2022-10-15T11:58:12;21.70;99.90
736;DHT22;352;48.626;9.238;2022-10-15T12:00:45;21.50;99.90
736;DHT22;352;48.626;9.238;2022-10-15T12:03:15;21.30;99.90
736;DHT22;352;48.626;9.238;2022-10-15T12:05:47;21.10;99.90
736;DHT22;352;48.626;9.238;2022-10-15T12:08:15;20.90;99.90
736;DHT22;352;48.626;9.238;2022-10-15T12:11:14;20.90;99.90
736;DHT22;352;48.626;9.238;2022-10-15T12:13:47;21.00;99.90
736;DHT22;352;48.626;9.238;2022-10-15T12:16:22;20.90;99.90
736;DHT22;352;48.626;9.238;2022-10-15T12:18:57;20.90;99.90
736;DHT22;352;48.626;9.238;2022-10-15T12:21:33;21.00;99.90
736;DHT22;352;48.626;9.238;2022-10-15T12:24:01;21.10;99.90
736;DHT22;352;48.626;9.238;2022-10-15T12:26:30;21.10;99.90
736;DHT22;352;48.626;9.238;2022-10-15T12:29:00;21.00;99.90
736;DHT22;352;48.626;9.238;2022-10-15T12:31:49;21.00;99.90
736;DHT22;352;48.626;9.238;2022-10-15T12:34:26;21.00;99.90
736;DHT22;352;48.626;9.238;2022-10-15T12:37:17;20.90;99.90
736;DHT22;352;48.626;9.238;2022-10-15T12:39:54;20.80;99.90
736;DHT22;352;48.626;9.238;2022-10-15T12:42:25;20.60;99.90
736;DHT22;352;48.626;9.238;2022-10-15T12:44:54;20.50;99.90
736;DHT22;352;48.626;9.238;2022-10-15T12:47:47;20.50;99.90
736;DHT22;352;48.626;9.238;2022-10-15T12:50:19;20.50;99.90
736;DHT22;352;48.626;9.238;2022-10-15T12:52:56;20.50;99.90
736;DHT22;352;48.626;9.238;2022-10-15T12:55:29;20.50;99.90
736;DHT22;352;48.626;9.238;2022-10-15T12:57:59;20.50;99.90
736;DHT22;352;48.626;9.238;2022-10-15T13:00:35;20.50;99.90
736;DHT22;352;48.626;9.238;2022-10-15T13:03:26;20.30;99.90
736;DHT22;352;48.626;9.238;2022-10-15T13:06:12;20.30;99.90
736;DHT22;352;48.626;9.238;2022-10-15T13:08:44;20.20;99.90
736;DHT22;352;48.626;9.238;2022-10-15T13:11:19;20.20;99.90
736;DHT22;352;48.626;9.238;2022-10-15T13:13:48;20.20;99.90
736;DHT22;352;48.626;9.238;2022-10-15T13:16:16;20.20;99.90
736;DHT22;352;48.626;9.238;2022-10-15T13:18:48;20.40;99.90
736;DHT22;352;48.626;9.238;2022-10-15T13:21:16;20.40;99.90
736;DHT22;352;48.626;9.238;2022-10-15T13:23:48;20.50;99.90
736;DHT22;352;48.626;9.238;2022-10-15T13:26:18;20.50;99.90
736;DHT22;352;48.626;9.238;2022-10-15T13:28:46;20.50;99.90
736;DHT22;352;48.626;9.238;2022-10-15T13:31:20;20.30;99.90
736;DHT22;352;48.626;9.238;2022-10-15T13:33:50;20.30;99.90
736;DHT22;352;48.626;9.238;2022-10-15T13:36:20;20.30;99.90
736;DHT22;352;48.626;9.238;2022-10-15T13:38:56;20.30;99.90
736;DHT22;352;48.626;9.238;2022-10-15T13:41:29;20.30;99.90
736;DHT22;352;48.626;9.238;2022-10-15T13:43:56;20.30;99.90
736;DHT22;352;48.626;9.238;2022-10-15T13:46:26;20.20;99.90
736;DHT22;352;48.626;9.238;2022-10-15T13:49:01;20.20;99.90
736;DHT22;352;48.626;9.238;2022-10-15T13:51:33;20.10;99.90
736;DHT22;352;48.626;9.238;2022-10-15T13:54:07;20.20;99.90
736;DHT22;352;48.626;9.238;2022-10-15T13:56:34;20.10;99.90
736;DHT22;352;48.626;9.238;2022-10-15T13:59:02;20.10;99.90
736;DHT22;352;48.626;9.238;2022-10-15T14:01:31;20.10;99.90
736;DHT22;352;48.626;9.238;2022-10-15T14:04:00;20.10;99.90
736;DHT22;352;48.626;9.238;2022-10-15T14:06:29;20.10;99.90
736;DHT22;352;48.626;9.238;2022-10-15T14:08:57;20.10;99.90
736;DHT22;352;48.626;9.238;2022-10-15T14:11:27;20.10;99.90
736;DHT22;352;48.626;9.238;2022-10-15T14:13:55;20.10;99.90
736;DHT22;352;48.626;9.238;2022-10-15T14:16:26;20.00;99.90
736;DHT22;352;48.626;9.238;2022-10-15T14:18:56;20.00;99.90
736;DHT22;352;48.626;9.238;2022-10-15T14:21:25;20.00;99.90
736;DHT22;352;48.626;9.238;2022-10-15T14:24:02;19.90;99.90
736;DHT22;352;48.626;9.238;2022-10-15T14:26:31;19.80;99.90
736;DHT22;352;48.626;9.238;2022-10-15T14:28:59;19.70;99.90
736;DHT22;352;48.626;9.238;2022-10-15T14:31:32;19.70;99.90
736;DHT22;352;48.626;9.238;2022-10-15T14:34:02;19.70;99.90
736;DHT22;352;48.626;9.238;2022-10-15T14:36:30;19.60;99.90
736;DHT22;352;48.626;9.238;2022-10-15T14:39:23;19.60;99.90
736;DHT22;352;48.626;9.238;2022-10-15T14:41:59;19.60;99.90
736;DHT22;352;48.626;9.238;2022-10-15T14:44:39;19.60;99.90
736;DHT22;352;48.626;9.238;2022-10-15T14:47:16;19.60;99.90
736;DHT22;352;48.626;9.238;2022-10-15T14:49:44;19.60;99.90
736;DHT22;352;48.626;9.238;2022-10-15T14:52:13;19.50;99.90
736;DHT22;352;48.626;9.238;2022-10-15T14:54:45;19.50;99.90
736;DHT22;352;48.626;9.238;2022-10-15T14:57:17;19.50;99.90
736;DHT22;352;48.626;9.238;2022-10-15T14:59:46;19.50;99.90
736;DHT22;352;48.626;9.238;2022-10-15T15:02:14;19.50;99.90
736;DHT22;352;48.626;9.238;2022-10-15T15:04:43;19.50;99.90
736;DHT22;352;48.626;9.238;2022-10-15T15:07:15;19.50;99.90
736;DHT22;352;48.626;9.238;2022-10-15T15:09:45;19.40;99.90
736;DHT22;352;48.626;9.238;2022-10-15T15:12:17;19.30;99.90
736;DHT22;352;48.626;9.238;2022-10-15T15:14:45;19.30;99.90
736;DHT22;352;48.626;9.238;2022-10-15T15:17:14;19.30;99.90
736;DHT22;352;48.626;9.238;2022-10-15T15:19:41;19.30;99.90
736;DHT22;352;48.626;9.238;2022-10-15T15:22:10;19.30;99.90
736;DHT22;352;48.626;9.238;2022-10-15T15:24:37;19.30;99.90
736;DHT22;352;48.626;9.238;2022-10-15T15:27:04;19.30;99.90
736;DHT22;352;48.626;9.238;2022-10-15T15:29:32;19.30;99.90
736;DHT22;352;48.626;9.238;2022-10-15T15:31:59;19.30;99.90
736;DHT22;352;48.626;9.238;2022-10-15T15:34:25;19.30;99.90
736;DHT22;352;48.626;9.238;2022-10-15T15:36:52;19.40;99.90
736;DHT22;352;48.626;9.238;2022-10-15T15:39:19;19.40;99.90
736;DHT22;352;48.626;9.238;2022-10-15T15:41:46;19.30;99.90
736;DHT22;352;48.626;9.238;2022-10-15T15:44:13;19.30;99.90
736;DHT22;352;48.626;9.238;2022-10-15T15:46:41;19.30;99.90
736;DHT22;352;48.626;9.238;2022-10-15T15:49:08;19.30;99.90
736;DHT22;352;48.626;9.238;2022-10-15T15:51:35;19.30;99.90
736;DHT22;352;48.626;9.238;2022-10-15T15:54:02;19.20;99.90
736;DHT22;352;48.626;9.238;2022-10-15T15:56:34;19.10;99.90
736;DHT22;352;48.626;9.238;2022-10-15T15:59:00;19.10;99.90
736;DHT22;352;48.626;9.238;2022-10-15T16:01:27;19.00;99.90
736;DHT22;352;48.626;9.238;2022-10-15T16:03:56;19.00;99.90
736;DHT22;352;48.626;9.238;2022-10-15T16:06:22;18.90;99.90
736;DHT22;352;48.626;9.238;2022-10-15T16:08:50;18.90;99.90
736;DHT22;352;48.626;9.238;2022-10-15T16:11:17;18.80;99.90
736;DHT22;352;48.626;9.238;2022-10-15T16:13:44;18.80;99.90
736;DHT22;352;48.626;9.238;2022-10-15T16:16:11;18.80;99.90
736;DHT22;352;48.626;9.238;2022-10-15T16:18:38;18.80;99.90
736;DHT22;352;48.626;9.238;2022-10-15T16:21:06;18.80;99.90
736;DHT22;352;48.626;9.238;2022-10-15T16:23:33;18.70;99.90
736;DHT22;352;48.626;9.238;2022-10-15T16:25:59;18.70;99.90
736;DHT22;352;48.626;9.238;2022-10-15T16:28:26;18.70;99.90
736;DHT22;352;48.626;9.238;2022-10-15T16:30:53;18.70;99.90
736;DHT22;352;48.626;9.238;2022-10-15T16:33:20;18.70;99.90
736;DHT22;352;48.626;9.238;2022-10-15T16:35:50;18.70;99.90
736;DHT22;352;48.626;9.238;2022-10-15T16:38:19;18.60;99.90
736;DHT22;352;48.626;9.238;2022-10-15T16:40:46;18.60;99.90
736;DHT22;352;48.626;9.238;2022-10-15T16:43:12;18.50;99.90
736;DHT22;352;48.626;9.238;2022-10-15T16:45:39;18.50;99.90
736;DHT22;352;48.626;9.238;2022-10-15T16:48:06;18.50;99.90
736;DHT22;352;48.626;9.238;2022-10-15T16:50:33;18.40;99.90
736;DHT22;352;48.626;9.238;2022-10-15T16:52:59;18.40;99.90
736;DHT22;352;48.626;9.238;2022-10-15T16:55:29;18.40;99.90
736;DHT22;352;48.626;9.238;2022-10-15T16:57:56;18.30;99.90
736;DHT22;352;48.626;9.238;2022-10-15T17:00:23;18.30;99.90
736;DHT22;352;48.626;9.238;2022-10-15T17:02:50;18.30;99.90
736;DHT22;352;48.626;9.238;2022-10-15T17:05:19;18.30;99.90
736;DHT22;352;48.626;9.238;2022-10-15T17:07:46;18.30;99.90
736;DHT22;352;48.626;9.238;2022-10-15T17:10:13;18.30;99.90
736;DHT22;352;48.626;9.238;2022-10-15T17:12:41;18.20;99.90
736;DHT22;352;48.626;9.238;2022-10-15T17:15:09;18.20;99.90
736;DHT22;352;48.626;9.238;2022-10-15T17:17:36;18.20;99.90
736;DHT22;352;48.626;9.238;2022-10-15T17:20:41;18.20;99.90
736;DHT22;352;48.626;9.238;2022-10-15T17:23:08;18.10;99.90
736;DHT22;352;48.626;9.238;2022-10-15T17:25:35;18.10;99.90
736;DHT22;352;48.626;9.238;2022-10-15T17:28:09;18.10;99.90
736;DHT22;352;48.626;9.238;2022-10-15T17:30:36;18.10;99.90
736;DHT22;352;48.626;9.238;2022-10-15T17:33:03;18.10;99.90
736;DHT22;352;48.626;9.238;2022-10-15T17:35:35;18.10;99.90
736;DHT22;352;48.626;9.238;2022-10-15T17:58:35;18.00;99.90
736;DHT22;352;48.626;9.238;2022-10-15T18:01:02;18.00;99.90
736;DHT22;352;48.626;9.238;2022-10-15T18:03:28;18.00;99.90
736;DHT22;352;48.626;9.238;2022-10-15T18:05:55;18.00;99.90
736;DHT22;352;48.626;9.238;2022-10-15T18:08:22;18.00;99.90
736;DHT22;352;48.626;9.238;2022-10-15T18:10:50;18.00;99.90
736;DHT22;352;48.626;9.238;2022-10-15T18:13:17;18.00;99.90
736;DHT22;352;48.626;9.238;2022-10-15T18:15:46;18.00;99.90
736;DHT22;352;48.626;9.238;2022-10-15T18:18:14;18.00;99.90
736;DHT22;352;48.626;9.238;2022-10-15T18:20:42;18.00;99.90
736;DHT22;352;48.626;9.238;2022-10-15T18:23:10;18.10;99.90
736;DHT22;352;48.626;9.238;2022-10-15T18:25:37;18.10;99.90
736;DHT22;352;48.626;9.238;2022-10-15T18:28:05;18.10;99.90
736;DHT22;352;48.626;9.238;2022-10-15T18:30:34;18.10;99.90
736;DHT22;352;48.626;9.238;2022-10-15T18:33:03;18.10;99.90
736;DHT22;352;48.626;9.238;2022-10-15T18:35:33;18.10;99.90
736;DHT22;352;48.626;9.238;2022-10-15T18:38:00;18.00;99.90
736;DHT22;352;48.626;9.238;2022-10-15T18:40:31;18.00;99.90
736;DHT22;352;48.626;9.238;2022-10-15T18:43:01;18.00;99.90
736;DHT22;352;48.626;9.238;2022-10-15T18:45:36;18.00;99.90
736;DHT22;352;48.626;9.238;2022-10-15T18:48:12;18.00;99.90
736;DHT22;352;48.626;9.238;2022-10-15T18:50:44;17.90;99.90
736;DHT22;352;48.626;9.238;2022-10-15T18:53:38;18.00;99.90
736;DHT22;352;48.626;9.238;2022-10-15T18:56:21;17.90;99.90
736;DHT22;352;48.626;9.238;2022-10-15T18:58:48;17.90;99.90
736;DHT22;352;48.626;9.238;2022-10-15T19:01:24;17.90;99.90
736;DHT22;352;48.626;9.238;2022-10-15T19:03:57;17.90;99.90
736;DHT22;352;48.626;9.238;2022-10-15T19:06:25;17.90;99.90
736;DHT22;352;48.626;9.238;2022-10-15T19:08:55;17.90;99.90
736;DHT22;352;48.626;9.238;2022-10-15T19:11:22;17.80;99.90
736;DHT22;352;48.626;9.238;2022-10-15T19:13:48;17.80;99.90
736;DHT22;352;48.626;9.238;2022-10-15T19:16:15;17.80;99.90
736;DHT22;352;48.626;9.238;2022-10-15T19:18:42;17.80;99.90
736;DHT22;352;48.626;9.238;2022-10-15T19:35:39;17.70;99.90
736;DHT22;352;48.626;9.238;2022-10-15T19:41:39;17.70;99.90
736;DHT22;352;48.626;9.238;2022-10-15T19:44:15;17.70;99.90
736;DHT22;352;48.626;9.238;2022-10-15T19:46:42;17.70;99.90
736;DHT22;352;48.626;9.238;2022-10-15T20:09:17;17.70;99.90
736;DHT22;352;48.626;9.238;2022-10-15T20:23:33;17.60;99.90
736;DHT22;352;48.626;9.238;2022-10-15T20:26:05;17.60;99.90
736;DHT22;352;48.626;9.238;2022-10-15T20:28:43;17.60;99.90
736;DHT22;352;48.626;9.238;2022-10-15T20:31:43;17.60;99.90
736;DHT22;352;48.626;9.238;2022-10-15T20:37:54;17.60;99.90
736;DHT22;352;48.626;9.238;2022-10-15T20:40:23;17.60;99.90
736;DHT22;352;48.626;9.238;2022-10-15T20:42:51;17.50;99.90
736;DHT22;352;48.626;9.238;2022-10-15T20:55:07;17.50;99.90
736;DHT22;352;48.626;9.238;2022-10-15T21:10:38;17.50;99.90
736;DHT22;352;48.626;9.238;2022-10-15T21:13:26;17.50;99.90
736;DHT22;352;48.626;9.238;2022-10-15T21:16:23;17.50;99.90
736;DHT22;352;48.626;9.238;2022-10-15T21:25:46;17.40;99.90
736;DHT22;352;48.626;9.238;2022-10-15T21:28:40;17.30;99.90
736;DHT22;352;48.626;9.238;2022-10-15T21:31:54;17.40;99.90
736;DHT22;352;48.626;9.238;2022-10-15T21:34:47;17.40;99.90
736;DHT22;352;48.626;9.238;2022-10-15T21:37:18;17.30;99.90
736;DHT22;352;48.626;9.238;2022-10-15T21:40:33;17.30;99.90
736;DHT22;352;48.626;9.238;2022-10-15T21:43:33;17.20;99.90
736;DHT22;352;48.626;9.238;2022-10-15T21:49:35;17.20;99.90
736;DHT22;352;48.626;9.238;2022-10-15T21:55:41;17.20;99.90
736;DHT22;352;48.626;9.238;2022-10-15T22:34:03;17.10;99.90
736;DHT22;352;48.626;9.238;2022-10-15T22:40:34;17.10;99.90
736;DHT22;352;48.626;9.238;2022-10-15T22:43:01;17.10;99.90
736;DHT22;352;48.626;9.238;2022-10-15T22:45:31;17.10;99.90
736;DHT22;352;48.626;9.238;2022-10-15T22:53:19;17.10;99.90
736;DHT22;352;48.626;9.238;2022-10-15T22:56:05;17.20;99.90
736;DHT22;352;48.626;9.238;2022-10-15T22:58:41;17.20;99.90
736;DHT22;352;48.626;9.238;2022-10-15T23:01:23;17.10;99.90
736;DHT22;352;48.626;9.238;2022-10-15T23:03:56;17.20;99.90
736;DHT22;352;48.626;9.238;2022-10-15T23:06:35;17.20;99.90
736;DHT22;352;48.626;9.238;2022-10-15T23:09:20;17.10;99.90
736;DHT22;352;48.626;9.238;2022-10-15T23:12:05;17.10;99.90
736;DHT22;352;48.626;9.238;2022-10-15T23:16:20;17.10;99.90
736;DHT22;352;48.626;9.238;2022-10-15T23:18:25;17.10;99.90
736;DHT22;352;48.626;9.238;2022-10-15T23:20:52;17.10;99.90
736;DHT22;352;48.626;9.238;2022-10-15T23:23:19;17.10;99.90
736;DHT22;352;48.626;9.238;2022-10-15T23:25:47;17.10;99.90
736;DHT22;352;48.626;9.238;2022-10-15T23:28:13;17.10;99.90
736;DHT22;352;48.626;9.238;2022-10-15T23:30:40;17.20;99.90
736;DHT22;352;48.626;9.238;2022-10-15T23:33:07;17.10;99.90
736;DHT22;352;48.626;9.238;2022-10-15T23:35:34;17.10;99.90
736;DHT22;352;48.626;9.238;2022-10-15T23:38:00;17.10;99.90
736;DHT22;352;48.626;9.238;2022-10-15T23:40:29;17.20;99.90
736;DHT22;352;48.626;9.238;2022-10-15T23:42:57;17.10;99.90
736;DHT22;352;48.626;9.238;2022-10-15T23:45:24;17.10;99.90
736;DHT22;352;48.626;9.238;2022-10-15T23:47:50;17.10;99.90
736;DHT22;352;48.626;9.238;2022-10-15T23:50:17;17.10;99.90
736;DHT22;352;48.626;9.238;2022-10-15T23:52:44;17.10;99.90
736;DHT22;352;48.626;9.238;2022-10-15T23:55:10;17.10;99.90
736;DHT22;352;48.626;9.238;2022-10-15T23:57:37;17.10;99.90
